sensor_id;sensor_type;location;lat;lon;timestamp;temperature;humidity
7792;DHT22;3940;49.892;10.886;2022-08-01T00:00:59;21.00;99.90
7792;DHT22;3940;49.892;10.886;2022-08-01T00:03:43;21.00;99.90
7792;DHT22;3940;49.892;10.886;2022-08-01T00:06:27;21.00;99.90
7792;DHT22;3940;49.892;10.886;2022-08-01T00:09:15;21.20;99.90
7792;DHT22;3940;49.892;10.886;2022-08-01T00:12:02;21.30;99.90
7792;DHT22;3940;49.892;10.886;2022-08-01T00:14:48;21.30;99.90
7792;DHT22;3940;49.892;10.886;2022-08-01T00:17:33;21.30;99.90
7792;DHT22;3940;49.892;10.886;2022-08-01T00:20:17;21.20;99.90
7792;DHT22;3940;49.892;10.886;2022-08-01T00:23:03;21.20;99.90
7792;DHT22;3940;49.892;10.886;2022-08-01T00:25:47;21.10;99.90
7792;DHT22;3940;49.892;10.886;2022-08-01T00:28:32;21.10;99.90
7792;DHT22;3940;49.892;10.886;2022-08-01T00:31:16;21.20;99.90
7792;DHT22;3940;49.892;10.886;2022-08-01T00:34:01;21.10;99.90
7792;DHT22;3940;49.892;10.886;2022-08-01T00:36:45;21.20;99.90
7792;DHT22;3940;49.892;10.886;2022-08-01T00:39:30;21.20;99.90
7792;DHT22;3940;49.892;10.886;2022-08-01T00:42:17;21.30;99.90
7792;DHT22;3940;49.892;10.886;2022-08-01T00:45:01;21.30;99.90
7792;DHT22;3940;49.892;10.886;2022-08-01T00:47:45;21.30;99.90
7792;DHT22;3940;49.892;10.886;2022-08-01T00:50:29;21.30;99.90
7792;DHT22;3940;49.892;10.886;2022-08-01T00:53:14;21.30;99.90
7792;DHT22;3940;49.892;10.886;2022-08-01T00:55:59;21.30;99.90
7792;DHT22;3940;49.892;10.886;2022-08-01T00:58:44;21.40;99.90
7792;DHT22;3940;49.892;10.886;2022-08-01T01:01:28;21.40;99.90
7792;DHT22;3940;49.892;10.886;2022-08-01T01:04:12;21.40;99.90
7792;DHT22;3940;49.892;10.886;2022-08-01T01:07:07;21.40;99.90
7792;DHT22;3940;49.892;10.886;2022-08-01T01:10:02;21.40;99.90
7792;DHT22;3940;49.892;10.886;2022-08-01T01:13:02;21.40;99.90
7792;DHT22;3940;49.892;10.886;2022-08-01T01:16:00;21.40;99.90
7792;DHT22;3940;49.892;10.886;2022-08-01T01:18:51;21.30;99.90
7792;DHT22;3940;49.892;10.886;2022-08-01T01:21:53;21.30;99.90
7792;DHT22;3940;49.892;10.886;2022-08-01T01:31:15;21.30;99.90
7792;DHT22;3940;49.892;10.886;2022-08-01T01:34:02;21.30;99.90
7792;DHT22;3940;49.892;10.886;2022-08-01T01:36:49;21.20;99.90
7792;DHT22;3940;49.892;10.886;2022-08-01T01:39:35;21.20;99.90
7792;DHT22;3940;49.892;10.886;2022-08-01T01:42:20;21.30;99.90
7792;DHT22;3940;49.892;10.886;2022-08-01T01:45:07;21.30;99.90
7792;DHT22;3940;49.892;10.886;2022-08-01T01:47:52;21.20;99.90
7792;DHT22;3940;49.892;10.886;2022-08-01T01:50:37;21.20;99.90
7792;DHT22;3940;49.892;10.886;2022-08-01T01:53:23;21.20;99.90
7792;DHT22;3940;49.892;10.886;2022-08-01T01:56:09;21.30;99.90
7792;DHT22;3940;49.892;10.886;2022-08-01T01:58:56;21.20;99.90
7792;DHT22;3940;49.892;10.886;2022-08-01T02:01:42;21.20;99.90
7792;DHT22;3940;49.892;10.886;2022-08-01T02:04:28;21.10;99.90
7792;DHT22;3940;49.892;10.886;2022-08-01T02:07:19;21.20;99.90
7792;DHT22;3940;49.892;10.886;2022-08-01T02:10:05;21.20;99.90
7792;DHT22;3940;49.892;10.886;2022-08-01T02:12:50;21.20;99.90
7792;DHT22;3940;49.892;10.886;2022-08-01T02:15:36;21.10;99.90
7792;DHT22;3940;49.892;10.886;2022-08-01T02:18:22;21.10;99.90
7792;DHT22;3940;49.892;10.886;2022-08-01T02:21:10;21.10;99.90
7792;DHT22;3940;49.892;10.886;2022-08-01T02:24:01;21.00;99.90
7792;DHT22;3940;49.892;10.886;2022-08-01T02:26:50;21.00;99.90
7792;DHT22;3940;49.892;10.886;2022-08-01T02:29:43;20.20;99.90
7792;DHT22;3940;49.892;10.886;2022-08-01T02:32:36;20.00;99.90
7792;DHT22;3940;49.892;10.886;2022-08-01T02:35:27;19.70;99.90
7792;DHT22;3940;49.892;10.886;2022-08-01T02:38:14;19.60;99.90
7792;DHT22;3940;49.892;10.886;2022-08-01T02:41:04;19.50;99.90
7792;DHT22;3940;49.892;10.886;2022-08-01T02:43:52;19.40;99.90
7792;DHT22;3940;49.892;10.886;2022-08-01T02:46:41;19.20;99.90
7792;DHT22;3940;49.892;10.886;2022-08-01T02:49:31;19.20;99.90
7792;DHT22;3940;49.892;10.886;2022-08-01T02:52:17;19.30;99.90
7792;DHT22;3940;49.892;10.886;2022-08-01T02:55:04;19.30;99.90
7792;DHT22;3940;49.892;10.886;2022-08-01T02:57:51;19.40;99.90
7792;DHT22;3940;49.892;10.886;2022-08-01T03:00:36;19.40;99.90
7792;DHT22;3940;49.892;10.886;2022-08-01T03:03:21;19.40;99.90
7792;DHT22;3940;49.892;10.886;2022-08-01T03:06:07;19.50;99.90
7792;DHT22;3940;49.892;10.886;2022-08-01T03:08:53;19.60;99.90
7792;DHT22;3940;49.892;10.886;2022-08-01T03:11:42;19.70;99.90
7792;DHT22;3940;49.892;10.886;2022-08-01T03:14:29;19.80;99.90
7792;DHT22;3940;49.892;10.886;2022-08-01T03:17:16;20.00;99.90
7792;DHT22;3940;49.892;10.886;2022-08-01T03:20:03;20.10;99.90
7792;DHT22;3940;49.892;10.886;2022-08-01T03:22:49;20.10;99.90
7792;DHT22;3940;49.892;10.886;2022-08-01T03:25:38;20.10;99.90
7792;DHT22;3940;49.892;10.886;2022-08-01T03:28:24;19.60;99.90
7792;DHT22;3940;49.892;10.886;2022-08-01T03:31:10;19.00;99.90
7792;DHT22;3940;49.892;10.886;2022-08-01T03:33:56;18.50;99.90
7792;DHT22;3940;49.892;10.886;2022-08-01T03:36:49;18.60;99.90
7792;DHT22;3940;49.892;10.886;2022-08-01T03:39:44;18.60;99.90
7792;DHT22;3940;49.892;10.886;2022-08-01T03:42:34;18.60;99.90
7792;DHT22;3940;49.892;10.886;2022-08-01T03:45:23;18.60;99.90
7792;DHT22;3940;49.892;10.886;2022-08-01T03:48:12;18.50;99.90
7792;DHT22;3940;49.892;10.886;2022-08-01T03:50:58;18.50;99.90
7792;DHT22;3940;49.892;10.886;2022-08-01T03:53:44;18.30;99.90
7792;DHT22;3940;49.892;10.886;2022-08-01T03:56:31;18.30;99.90
7792;DHT22;3940;49.892;10.886;2022-08-01T03:59:17;18.30;99.90
7792;DHT22;3940;49.892;10.886;2022-08-01T04:02:02;18.10;99.90
7792;DHT22;3940;49.892;10.886;2022-08-01T04:04:46;18.30;99.90
7792;DHT22;3940;49.892;10.886;2022-08-01T04:07:32;18.40;99.90
7792;DHT22;3940;49.892;10.886;2022-08-01T04:10:19;18.40;99.90
7792;DHT22;3940;49.892;10.886;2022-08-01T04:13:04;18.40;99.90
7792;DHT22;3940;49.892;10.886;2022-08-01T04:15:48;18.10;99.90
7792;DHT22;3940;49.892;10.886;2022-08-01T04:18:33;18.20;99.90
7792;DHT22;3940;49.892;10.886;2022-08-01T04:21:22;18.30;99.90
7792;DHT22;3940;49.892;10.886;2022-08-01T04:24:11;18.20;99.90
7792;DHT22;3940;49.892;10.886;2022-08-01T04:26:58;18.20;99.90
7792;DHT22;3940;49.892;10.886;2022-08-01T04:29:44;18.30;99.90
7792;DHT22;3940;49.892;10.886;2022-08-01T04:32:35;18.50;99.90
7792;DHT22;3940;49.892;10.886;2022-08-01T04:35:20;18.20;99.90
7792;DHT22;3940;49.892;10.886;2022-08-01T04:38:05;18.10;99.90
7792;DHT22;3940;49.892;10.886;2022-08-01T04:40:51;18.10;99.90
7792;DHT22;3940;49.892;10.886;2022-08-01T04:43:37;18.20;99.90
7792;DHT22;3940;49.892;10.886;2022-08-01T04:46:22;18.30;99.90
7792;DHT22;3940;49.892;10.886;2022-08-01T04:49:08;18.30;99.90
7792;DHT22;3940;49.892;10.886;2022-08-01T04:51:55;18.30;99.90
7792;DHT22;3940;49.892;10.886;2022-08-01T04:54:43;18.60;99.90
7792;DHT22;3940;49.892;10.886;2022-08-01T04:57:29;18.80;99.90
7792;DHT22;3940;49.892;10.886;2022-08-01T05:00:15;19.10;99.90
7792;DHT22;3940;49.892;10.886;2022-08-01T05:03:00;19.30;99.90
7792;DHT22;3940;49.892;10.886;2022-08-01T05:05:45;19.50;99.90
7792;DHT22;3940;49.892;10.886;2022-08-01T05:08:29;19.40;99.90
7792;DHT22;3940;49.892;10.886;2022-08-01T05:11:14;19.20;99.90
7792;DHT22;3940;49.892;10.886;2022-08-01T05:13:59;19.80;99.90
7792;DHT22;3940;49.892;10.886;2022-08-01T05:16:46;19.80;99.90
7792;DHT22;3940;49.892;10.886;2022-08-01T05:19:32;20.40;99.90
7792;DHT22;3940;49.892;10.886;2022-08-01T05:22:17;20.50;99.90
7792;DHT22;3940;49.892;10.886;2022-08-01T05:25:01;20.20;99.90
7792;DHT22;3940;49.892;10.886;2022-08-01T05:27:46;20.30;99.90
7792;DHT22;3940;49.892;10.886;2022-08-01T05:30:32;20.80;99.90
7792;DHT22;3940;49.892;10.886;2022-08-01T05:33:16;20.90;99.90
7792;DHT22;3940;49.892;10.886;2022-08-01T05:36:01;20.30;99.90
7792;DHT22;3940;49.892;10.886;2022-08-01T05:38:45;20.70;99.90
7792;DHT22;3940;49.892;10.886;2022-08-01T05:41:30;20.60;99.90
7792;DHT22;3940;49.892;10.886;2022-08-01T05:44:14;20.10;99.90
7792;DHT22;3940;49.892;10.886;2022-08-01T05:46:59;20.00;99.90
7792;DHT22;3940;49.892;10.886;2022-08-01T05:49:44;20.00;99.90
7792;DHT22;3940;49.892;10.886;2022-08-01T05:52:29;20.30;99.90
7792;DHT22;3940;49.892;10.886;2022-08-01T05:55:15;20.30;99.90
7792;DHT22;3940;49.892;10.886;2022-08-01T05:57:59;19.80;99.90
7792;DHT22;3940;49.892;10.886;2022-08-01T06:00:45;20.40;99.90
7792;DHT22;3940;49.892;10.886;2022-08-01T06:03:30;20.30;99.90
7792;DHT22;3940;49.892;10.886;2022-08-01T06:06:15;20.30;99.90
7792;DHT22;3940;49.892;10.886;2022-08-01T06:09:00;20.50;99.90
7792;DHT22;3940;49.892;10.886;2022-08-01T06:11:45;20.80;99.90
7792;DHT22;3940;49.892;10.886;2022-08-01T06:14:30;20.30;99.90
7792;DHT22;3940;49.892;10.886;2022-08-01T06:17:14;20.50;99.90
7792;DHT22;3940;49.892;10.886;2022-08-01T06:19:59;20.30;99.90
7792;DHT22;3940;49.892;10.886;2022-08-01T06:22:44;20.60;99.90
7792;DHT22;3940;49.892;10.886;2022-08-01T06:25:28;20.70;99.90
7792;DHT22;3940;49.892;10.886;2022-08-01T06:28:12;20.70;99.90
7792;DHT22;3940;49.892;10.886;2022-08-01T06:30:57;20.20;99.90
7792;DHT22;3940;49.892;10.886;2022-08-01T06:33:43;20.40;99.90
7792;DHT22;3940;49.892;10.886;2022-08-01T06:36:27;20.60;99.90
7792;DHT22;3940;49.892;10.886;2022-08-01T06:39:11;20.70;99.90
7792;DHT22;3940;49.892;10.886;2022-08-01T06:41:56;21.10;99.90
7792;DHT22;3940;49.892;10.886;2022-08-01T06:44:40;20.90;99.90
7792;DHT22;3940;49.892;10.886;2022-08-01T06:47:25;21.00;99.90
7792;DHT22;3940;49.892;10.886;2022-08-01T06:50:11;20.70;99.90
7792;DHT22;3940;49.892;10.886;2022-08-01T06:52:55;20.60;99.90
7792;DHT22;3940;49.892;10.886;2022-08-01T06:55:39;20.60;99.90
7792;DHT22;3940;49.892;10.886;2022-08-01T06:58:24;20.60;99.90
7792;DHT22;3940;49.892;10.886;2022-08-01T07:01:09;20.70;99.90
7792;DHT22;3940;49.892;10.886;2022-08-01T07:03:53;20.80;99.90
7792;DHT22;3940;49.892;10.886;2022-08-01T07:06:38;21.10;99.90
7792;DHT22;3940;49.892;10.886;2022-08-01T07:09:25;21.20;99.90
7792;DHT22;3940;49.892;10.886;2022-08-01T07:12:10;21.10;99.90
7792;DHT22;3940;49.892;10.886;2022-08-01T07:14:56;21.30;99.90
7792;DHT22;3940;49.892;10.886;2022-08-01T07:17:42;21.40;99.90
7792;DHT22;3940;49.892;10.886;2022-08-01T07:20:26;21.30;99.90
7792;DHT22;3940;49.892;10.886;2022-08-01T07:23:12;21.70;99.90
7792;DHT22;3940;49.892;10.886;2022-08-01T07:25:56;21.80;99.90
7792;DHT22;3940;49.892;10.886;2022-08-01T07:28:40;21.70;99.90
7792;DHT22;3940;49.892;10.886;2022-08-01T07:31:26;21.60;99.90
7792;DHT22;3940;49.892;10.886;2022-08-01T07:34:11;21.70;99.90
7792;DHT22;3940;49.892;10.886;2022-08-01T07:36:55;21.60;99.90
7792;DHT22;3940;49.892;10.886;2022-08-01T07:39:40;21.90;99.90
7792;DHT22;3940;49.892;10.886;2022-08-01T07:42:24;21.90;99.90
7792;DHT22;3940;49.892;10.886;2022-08-01T07:45:09;21.90;99.90
7792;DHT22;3940;49.892;10.886;2022-08-01T07:47:53;22.00;99.90
7792;DHT22;3940;49.892;10.886;2022-08-01T07:50:38;22.30;99.90
7792;DHT22;3940;49.892;10.886;2022-08-01T07:53:22;22.40;99.90
7792;DHT22;3940;49.892;10.886;2022-08-01T07:56:07;22.70;99.90
7792;DHT22;3940;49.892;10.886;2022-08-01T07:58:52;23.20;99.90
7792;DHT22;3940;49.892;10.886;2022-08-01T08:01:36;23.30;99.90
7792;DHT22;3940;49.892;10.886;2022-08-01T08:04:20;23.50;99.90
7792;DHT22;3940;49.892;10.886;2022-08-01T08:07:04;23.50;99.90
7792;DHT22;3940;49.892;10.886;2022-08-01T08:09:49;23.40;99.90
7792;DHT22;3940;49.892;10.886;2022-08-01T08:12:33;23.60;99.90
7792;DHT22;3940;49.892;10.886;2022-08-01T08:15:18;23.70;99.90
7792;DHT22;3940;49.892;10.886;2022-08-01T08:18:04;23.90;99.90
7792;DHT22;3940;49.892;10.886;2022-08-01T08:20:48;24.00;99.90
7792;DHT22;3940;49.892;10.886;2022-08-01T08:23:32;24.10;99.90
7792;DHT22;3940;49.892;10.886;2022-08-01T08:26:34;24.10;99.90
7792;DHT22;3940;49.892;10.886;2022-08-01T08:29:19;24.10;99.90
7792;DHT22;3940;49.892;10.886;2022-08-01T08:32:04;24.10;99.90
7792;DHT22;3940;49.892;10.886;2022-08-01T08:34:48;24.20;99.90
7792;DHT22;3940;49.892;10.886;2022-08-01T08:37:34;24.20;99.90
7792;DHT22;3940;49.892;10.886;2022-08-01T08:40:21;24.30;99.90
7792;DHT22;3940;49.892;10.886;2022-08-01T08:43:07;24.30;99.90
7792;DHT22;3940;49.892;10.886;2022-08-01T08:45:52;24.30;99.90
7792;DHT22;3940;49.892;10.886;2022-08-01T08:48:40;24.50;99.90
7792;DHT22;3940;49.892;10.886;2022-08-01T08:51:26;24.50;99.90
7792;DHT22;3940;49.892;10.886;2022-08-01T08:54:12;24.60;99.90
7792;DHT22;3940;49.892;10.886;2022-08-01T08:56:59;24.70;99.90
7792;DHT22;3940;49.892;10.886;2022-08-01T08:59:45;24.90;99.90
7792;DHT22;3940;49.892;10.886;2022-08-01T09:02:30;24.90;99.90
7792;DHT22;3940;49.892;10.886;2022-08-01T09:05:15;24.60;99.90
7792;DHT22;3940;49.892;10.886;2022-08-01T09:08:00;24.70;99.90
7792;DHT22;3940;49.892;10.886;2022-08-01T09:10:45;24.90;99.90
7792;DHT22;3940;49.892;10.886;2022-08-01T09:13:29;24.80;99.90
7792;DHT22;3940;49.892;10.886;2022-08-01T09:16:16;25.00;99.90
7792;DHT22;3940;49.892;10.886;2022-08-01T09:19:15;25.00;99.90
7792;DHT22;3940;49.892;10.886;2022-08-01T09:22:02;25.00;99.90
7792;DHT22;3940;49.892;10.886;2022-08-01T09:25:06;25.10;99.90
7792;DHT22;3940;49.892;10.886;2022-08-01T09:28:03;25.10;99.90
7792;DHT22;3940;49.892;10.886;2022-08-01T09:30:47;25.20;99.90
7792;DHT22;3940;49.892;10.886;2022-08-01T09:33:49;25.30;99.90
7792;DHT22;3940;49.892;10.886;2022-08-01T09:36:53;25.10;99.90
7792;DHT22;3940;49.892;10.886;2022-08-01T09:39:40;24.90;99.90
7792;DHT22;3940;49.892;10.886;2022-08-01T09:42:27;24.80;99.90
7792;DHT22;3940;49.892;10.886;2022-08-01T09:45:32;24.70;99.90
7792;DHT22;3940;49.892;10.886;2022-08-01T09:48:18;24.40;99.90
7792;DHT22;3940;49.892;10.886;2022-08-01T09:51:03;24.30;99.90
7792;DHT22;3940;49.892;10.886;2022-08-01T09:53:48;24.10;99.90
7792;DHT22;3940;49.892;10.886;2022-08-01T09:56:42;24.00;99.90
7792;DHT22;3940;49.892;10.886;2022-08-01T09:59:35;23.90;99.90
7792;DHT22;3940;49.892;10.886;2022-08-01T10:02:39;23.90;99.90
7792;DHT22;3940;49.892;10.886;2022-08-01T10:05:33;24.00;99.90
7792;DHT22;3940;49.892;10.886;2022-08-01T10:08:18;24.30;99.90
7792;DHT22;3940;49.892;10.886;2022-08-01T10:11:12;24.50;99.90
7792;DHT22;3940;49.892;10.886;2022-08-01T10:13:58;24.60;99.90
7792;DHT22;3940;49.892;10.886;2022-08-01T10:16:43;24.90;99.90
7792;DHT22;3940;49.892;10.886;2022-08-01T10:19:28;25.10;99.90
7792;DHT22;3940;49.892;10.886;2022-08-01T10:22:14;25.20;99.90
7792;DHT22;3940;49.892;10.886;2022-08-01T10:25:04;25.20;99.90
7792;DHT22;3940;49.892;10.886;2022-08-01T10:27:52;25.20;99.90
7792;DHT22;3940;49.892;10.886;2022-08-01T10:30:41;25.10;99.90
7792;DHT22;3940;49.892;10.886;2022-08-01T10:33:26;24.90;99.90
7792;DHT22;3940;49.892;10.886;2022-08-01T10:36:11;24.80;99.90
7792;DHT22;3940;49.892;10.886;2022-08-01T10:38:56;24.90;99.90
7792;DHT22;3940;49.892;10.886;2022-08-01T10:41:40;24.90;99.90
7792;DHT22;3940;49.892;10.886;2022-08-01T10:44:26;25.00;99.90
7792;DHT22;3940;49.892;10.886;2022-08-01T10:47:17;25.20;99.90
7792;DHT22;3940;49.892;10.886;2022-08-01T10:50:07;25.50;99.90
7792;DHT22;3940;49.892;10.886;2022-08-01T10:53:11;26.00;99.90
7792;DHT22;3940;49.892;10.886;2022-08-01T10:56:00;26.20;99.90
7792;DHT22;3940;49.892;10.886;2022-08-01T10:58:46;26.50;99.90
7792;DHT22;3940;49.892;10.886;2022-08-01T11:01:31;26.40;99.90
7792;DHT22;3940;49.892;10.886;2022-08-01T11:04:17;26.20;99.90
7792;DHT22;3940;49.892;10.886;2022-08-01T11:07:04;26.10;99.90
7792;DHT22;3940;49.892;10.886;2022-08-01T11:10:02;25.90;99.90
7792;DHT22;3940;49.892;10.886;2022-08-01T11:12:47;25.80;99.90
7792;DHT22;3940;49.892;10.886;2022-08-01T11:15:32;25.80;99.90
7792;DHT22;3940;49.892;10.886;2022-08-01T11:18:32;25.70;99.90
7792;DHT22;3940;49.892;10.886;2022-08-01T11:21:17;25.40;99.90
7792;DHT22;3940;49.892;10.886;2022-08-01T11:24:03;25.60;99.90
7792;DHT22;3940;49.892;10.886;2022-08-01T11:30:26;25.70;99.90
7792;DHT22;3940;49.892;10.886;2022-08-01T11:33:11;26.00;99.90
7792;DHT22;3940;49.892;10.886;2022-08-01T11:36:16;26.30;99.90
7792;DHT22;3940;49.892;10.886;2022-08-01T11:39:14;26.70;99.90
7792;DHT22;3940;49.892;10.886;2022-08-01T11:42:17;26.80;99.90
7792;DHT22;3940;49.892;10.886;2022-08-01T11:45:02;27.10;99.90
7792;DHT22;3940;49.892;10.886;2022-08-01T11:47:49;27.20;99.90
7792;DHT22;3940;49.892;10.886;2022-08-01T11:50:35;27.10;99.90
7792;DHT22;3940;49.892;10.886;2022-08-01T11:53:21;26.70;99.90
7792;DHT22;3940;49.892;10.886;2022-08-01T11:56:06;26.40;99.90
7792;DHT22;3940;49.892;10.886;2022-08-01T11:58:59;26.30;99.90
7792;DHT22;3940;49.892;10.886;2022-08-01T12:01:44;26.10;99.90
7792;DHT22;3940;49.892;10.886;2022-08-01T12:04:46;26.10;99.90
7792;DHT22;3940;49.892;10.886;2022-08-01T12:07:32;26.30;99.90
7792;DHT22;3940;49.892;10.886;2022-08-01T12:10:18;26.90;99.90
7792;DHT22;3940;49.892;10.886;2022-08-01T12:13:05;26.90;99.90
7792;DHT22;3940;49.892;10.886;2022-08-01T12:15:49;26.80;99.90
7792;DHT22;3940;49.892;10.886;2022-08-01T12:18:42;26.40;99.90
7792;DHT22;3940;49.892;10.886;2022-08-01T12:21:27;26.30;99.90
7792;DHT22;3940;49.892;10.886;2022-08-01T12:24:12;26.60;99.90
7792;DHT22;3940;49.892;10.886;2022-08-01T12:26:56;26.70;99.90
7792;DHT22;3940;49.892;10.886;2022-08-01T12:29:42;27.20;99.90
7792;DHT22;3940;49.892;10.886;2022-08-01T12:32:29;27.00;99.90
7792;DHT22;3940;49.892;10.886;2022-08-01T12:35:18;26.50;99.90
7792;DHT22;3940;49.892;10.886;2022-08-01T12:38:07;26.20;99.90
7792;DHT22;3940;49.892;10.886;2022-08-01T12:40:52;26.10;99.90
7792;DHT22;3940;49.892;10.886;2022-08-01T12:43:36;26.40;99.90
7792;DHT22;3940;49.892;10.886;2022-08-01T12:46:21;26.40;99.90
7792;DHT22;3940;49.892;10.886;2022-08-01T12:49:06;26.20;99.90
7792;DHT22;3940;49.892;10.886;2022-08-01T12:51:50;26.00;99.90
7792;DHT22;3940;49.892;10.886;2022-08-01T12:57:44;25.80;99.90
7792;DHT22;3940;49.892;10.886;2022-08-01T13:00:29;25.80;99.90
7792;DHT22;3940;49.892;10.886;2022-08-01T13:03:17;25.70;99.90
7792;DHT22;3940;49.892;10.886;2022-08-01T13:06:13;25.60;99.90
7792;DHT22;3940;49.892;10.886;2022-08-01T13:09:06;25.70;99.90
7792;DHT22;3940;49.892;10.886;2022-08-01T13:11:51;25.60;99.90
7792;DHT22;3940;49.892;10.886;2022-08-01T13:14:37;25.80;99.90
7792;DHT22;3940;49.892;10.886;2022-08-01T13:17:37;27.00;99.90
7792;DHT22;3940;49.892;10.886;2022-08-01T13:20:26;27.10;99.90
7792;DHT22;3940;49.892;10.886;2022-08-01T13:23:16;26.80;99.90
7792;DHT22;3940;49.892;10.886;2022-08-01T13:26:02;27.20;99.90
7792;DHT22;3940;49.892;10.886;2022-08-01T13:29:05;27.90;99.90
7792;DHT22;3940;49.892;10.886;2022-08-01T13:31:50;27.80;99.90
7792;DHT22;3940;49.892;10.886;2022-08-01T13:34:34;28.20;99.90
7792;DHT22;3940;49.892;10.886;2022-08-01T13:37:18;28.30;99.90
7792;DHT22;3940;49.892;10.886;2022-08-01T13:40:03;28.60;99.90
7792;DHT22;3940;49.892;10.886;2022-08-01T13:42:47;28.40;99.90
7792;DHT22;3940;49.892;10.886;2022-08-01T13:45:32;29.80;99.90
7792;DHT22;3940;49.892;10.886;2022-08-01T13:48:17;30.00;99.90
7792;DHT22;3940;49.892;10.886;2022-08-01T13:51:02;28.50;99.90
7792;DHT22;3940;49.892;10.886;2022-08-01T13:53:47;28.60;99.90
7792;DHT22;3940;49.892;10.886;2022-08-01T13:56:31;28.50;99.90
7792;DHT22;3940;49.892;10.886;2022-08-01T13:59:16;29.10;99.90
7792;DHT22;3940;49.892;10.886;2022-08-01T14:02:00;29.40;99.90
7792;DHT22;3940;49.892;10.886;2022-08-01T14:04:45;29.70;99.90
7792;DHT22;3940;49.892;10.886;2022-08-01T14:07:29;29.20;99.90
7792;DHT22;3940;49.892;10.886;2022-08-01T14:10:14;29.50;99.90
7792;DHT22;3940;49.892;10.886;2022-08-01T14:12:59;30.70;99.90
7792;DHT22;3940;49.892;10.886;2022-08-01T14:16:07;31.00;99.90
7792;DHT22;3940;49.892;10.886;2022-08-01T14:18:55;30.90;99.90
7792;DHT22;3940;49.892;10.886;2022-08-01T14:22:06;29.90;99.90
7792;DHT22;3940;49.892;10.886;2022-08-01T14:24:55;29.90;99.90
7792;DHT22;3940;49.892;10.886;2022-08-01T14:27:41;30.50;99.90
7792;DHT22;3940;49.892;10.886;2022-08-01T14:30:28;30.20;99.20
7792;DHT22;3940;49.892;10.886;2022-08-01T14:33:32;30.20;98.30
7792;DHT22;3940;49.892;10.886;2022-08-01T14:36:27;29.10;99.90
7792;DHT22;3940;49.892;10.886;2022-08-01T14:39:16;28.50;99.90
7792;DHT22;3940;49.892;10.886;2022-08-01T14:42:02;29.40;99.90
7792;DHT22;3940;49.892;10.886;2022-08-01T14:44:47;29.50;99.90
7792;DHT22;3940;49.892;10.886;2022-08-01T14:47:32;29.40;99.90
7792;DHT22;3940;49.892;10.886;2022-08-01T14:50:17;29.20;99.90
7792;DHT22;3940;49.892;10.886;2022-08-01T14:53:02;29.10;99.90
7792;DHT22;3940;49.892;10.886;2022-08-01T14:55:46;28.90;99.90
7792;DHT22;3940;49.892;10.886;2022-08-01T14:58:31;28.60;99.90
7792;DHT22;3940;49.892;10.886;2022-08-01T15:01:15;28.90;99.90
7792;DHT22;3940;49.892;10.886;2022-08-01T15:04:02;29.00;99.90
7792;DHT22;3940;49.892;10.886;2022-08-01T15:06:46;29.00;99.90
7792;DHT22;3940;49.892;10.886;2022-08-01T15:09:31;28.70;99.90
7792;DHT22;3940;49.892;10.886;2022-08-01T15:12:15;28.80;99.90
7792;DHT22;3940;49.892;10.886;2022-08-01T15:15:00;28.70;99.90
7792;DHT22;3940;49.892;10.886;2022-08-01T15:17:45;28.40;99.90
7792;DHT22;3940;49.892;10.886;2022-08-01T15:20:29;28.60;99.90
7792;DHT22;3940;49.892;10.886;2022-08-01T15:23:14;28.40;99.90
7792;DHT22;3940;49.892;10.886;2022-08-01T15:25:59;27.80;99.90
7792;DHT22;3940;49.892;10.886;2022-08-01T15:28:43;28.10;99.90
7792;DHT22;3940;49.892;10.886;2022-08-01T15:31:28;28.10;99.90
7792;DHT22;3940;49.892;10.886;2022-08-01T15:34:13;28.40;99.90
7792;DHT22;3940;49.892;10.886;2022-08-01T15:36:57;28.40;99.90
7792;DHT22;3940;49.892;10.886;2022-08-01T15:39:41;28.30;99.90
7792;DHT22;3940;49.892;10.886;2022-08-01T15:42:26;28.40;99.90
7792;DHT22;3940;49.892;10.886;2022-08-01T15:45:10;28.50;99.90
7792;DHT22;3940;49.892;10.886;2022-08-01T15:48:00;28.30;99.90
7792;DHT22;3940;49.892;10.886;2022-08-01T15:50:45;27.70;99.90
7792;DHT22;3940;49.892;10.886;2022-08-01T15:53:29;27.50;99.90
7792;DHT22;3940;49.892;10.886;2022-08-01T15:56:14;27.10;99.90
7792;DHT22;3940;49.892;10.886;2022-08-01T15:58:59;27.10;99.90
7792;DHT22;3940;49.892;10.886;2022-08-01T16:01:47;27.00;99.90
7792;DHT22;3940;49.892;10.886;2022-08-01T16:04:32;26.60;99.90
7792;DHT22;3940;49.892;10.886;2022-08-01T16:07:17;26.90;99.90
7792;DHT22;3940;49.892;10.886;2022-08-01T16:10:02;27.00;99.90
7792;DHT22;3940;49.892;10.886;2022-08-01T16:12:46;27.00;99.90
7792;DHT22;3940;49.892;10.886;2022-08-01T16:15:30;26.90;99.90
7792;DHT22;3940;49.892;10.886;2022-08-01T16:18:14;27.20;99.90
7792;DHT22;3940;49.892;10.886;2022-08-01T16:21:00;27.40;99.90
7792;DHT22;3940;49.892;10.886;2022-08-01T16:23:45;27.20;99.90
7792;DHT22;3940;49.892;10.886;2022-08-01T16:26:30;27.20;99.90
7792;DHT22;3940;49.892;10.886;2022-08-01T16:29:14;27.40;99.90
7792;DHT22;3940;49.892;10.886;2022-08-01T16:31:58;27.60;99.90
7792;DHT22;3940;49.892;10.886;2022-08-01T16:34:43;27.60;99.90
7792;DHT22;3940;49.892;10.886;2022-08-01T16:37:27;27.60;99.90
7792;DHT22;3940;49.892;10.886;2022-08-01T16:40:12;27.60;99.90
7792;DHT22;3940;49.892;10.886;2022-08-01T16:42:59;27.70;99.90
7792;DHT22;3940;49.892;10.886;2022-08-01T16:45:44;27.70;99.90
7792;DHT22;3940;49.892;10.886;2022-08-01T16:48:29;27.90;99.90
7792;DHT22;3940;49.892;10.886;2022-08-01T16:51:15;27.90;99.90
7792;DHT22;3940;49.892;10.886;2022-08-01T16:54:00;27.80;99.90
7792;DHT22;3940;49.892;10.886;2022-08-01T16:56:45;27.80;99.90
7792;DHT22;3940;49.892;10.886;2022-08-01T16:59:30;27.90;99.90
7792;DHT22;3940;49.892;10.886;2022-08-01T17:02:15;27.90;99.90
7792;DHT22;3940;49.892;10.886;2022-08-01T17:05:01;27.80;99.90
7792;DHT22;3940;49.892;10.886;2022-08-01T17:07:46;27.70;99.90
7792;DHT22;3940;49.892;10.886;2022-08-01T17:10:33;27.60;99.90
7792;DHT22;3940;49.892;10.886;2022-08-01T17:13:17;27.50;99.90
7792;DHT22;3940;49.892;10.886;2022-08-01T17:16:06;27.30;99.90
7792;DHT22;3940;49.892;10.886;2022-08-01T17:18:53;27.20;99.90
7792;DHT22;3940;49.892;10.886;2022-08-01T17:21:39;27.00;99.90
7792;DHT22;3940;49.892;10.886;2022-08-01T17:24:23;27.00;99.90
7792;DHT22;3940;49.892;10.886;2022-08-01T17:27:10;26.80;99.90
7792;DHT22;3940;49.892;10.886;2022-08-01T17:29:55;26.70;99.90
7792;DHT22;3940;49.892;10.886;2022-08-01T17:32:42;26.60;99.90
7792;DHT22;3940;49.892;10.886;2022-08-01T17:35:29;26.60;99.90
7792;DHT22;3940;49.892;10.886;2022-08-01T17:38:14;26.70;99.90
7792;DHT22;3940;49.892;10.886;2022-08-01T17:41:04;26.70;99.90
7792;DHT22;3940;49.892;10.886;2022-08-01T17:43:52;26.70;99.90
7792;DHT22;3940;49.892;10.886;2022-08-01T17:46:58;26.80;99.90
7792;DHT22;3940;49.892;10.886;2022-08-01T17:49:46;26.90;99.90
7792;DHT22;3940;49.892;10.886;2022-08-01T17:52:32;26.80;99.90
7792;DHT22;3940;49.892;10.886;2022-08-01T17:55:17;26.80;99.90
7792;DHT22;3940;49.892;10.886;2022-08-01T17:58:07;26.70;99.90
7792;DHT22;3940;49.892;10.886;2022-08-01T18:00:51;26.70;99.90
7792;DHT22;3940;49.892;10.886;2022-08-01T18:03:37;26.70;99.90